KASL

Harrison County Airport

Marshall, Texas, USA
METAR KASL 241435Z AUTO 22011G16KT 10SM BKN025 OVC035 28/22 A2996 RMK AO1 T02800220
Observed Flight Rules
Jun-24 @ 14:35 UTC (23 minutes ago) Marginal Visual Flight Rules
Wind Visibility Clouds
220° at 11 knots
 Gusting to 16 knots
10 miles
  • Broken at 2,500' AGL
  • Overcast at 3,500' AGL
Temperatures Readings
Current 28°C / 82°F
Dewpoint 22°C / 72°F
Humidity 70%
Altimeter 29.96" Hg
Pressure 1015 hPa
Elevation 109
METAR KASL 241435Z AUTO 22011G16KT 10SM BKN025 OVC035 28/22 A2996 RMK AO1 T02800220
Observed Flight Rules
Jun-24 @ 14:35 UTC
(23 minutes ago)
MVFR
Wind Visibility
220° at 11 knots
 Gusting to 16 knots
10 miles
Clouds
  • Broken at 2,500' AGL
  • Overcast at 3,500' AGL
Temperature Dewpoint
28°C / 82°F 22°C / 72°F
Humidity Altimeter Pressure
70% 29.96" Hg 1015 hPa